createdAt,value
2022-12-01T00:00:43.352Z,99958.16
2022-12-01T00:03:05.027Z,99956.96
2022-12-01T00:05:18.926Z,99961.09
2022-12-01T00:07:32.388Z,99959.48
2022-12-01T00:10:02.111Z,99965.44
2022-12-01T00:12:15.826Z,99968.95
2022-12-01T00:14:29.166Z,99971.39
2022-12-01T00:16:42.449Z,99973.57
2022-12-01T00:18:57.919Z,99962.92
2022-12-01T00:21:16.758Z,99959.36
2022-12-01T00:23:30.205Z,99955.95
2022-12-01T00:25:43.428Z,99956.63
2022-12-01T00:27:58.588Z,99955.47
2022-12-01T00:30:14.895Z,99954.48
2022-12-01T00:32:28.208Z,99953.89
2022-12-01T00:34:41.387Z,99951.82
2022-12-01T00:36:54.875Z,99951.39
2022-12-01T00:39:08.209Z,99950.27
2022-12-01T00:41:22.145Z,99948.30
2022-12-01T00:43:35.943Z,99943.70
2022-12-01T00:45:49.229Z,99941.96
2022-12-01T00:48:02.423Z,99944.14
2022-12-01T00:50:17.743Z,99944.95
2022-12-01T00:52:31.072Z,99943.38
2022-12-01T00:54:44.345Z,99941.25
2022-12-01T00:56:57.680Z,99942.16
2022-12-01T00:59:10.918Z,99938.73
2022-12-01T01:01:24.333Z,99935.15
2022-12-01T01:03:39.050Z,99939.25
2022-12-01T01:05:52.263Z,99935.51
2022-12-01T01:08:06.023Z,99938.76
2022-12-01T01:10:19.977Z,99936.52
2022-12-01T01:12:33.320Z,99933.34
2022-12-01T01:14:46.538Z,99929.39
2022-12-01T01:16:59.840Z,99931.45
2022-12-01T01:19:13.296Z,99934.60
2022-12-01T01:21:28.076Z,99930.35
2022-12-01T01:23:41.625Z,99929.33
2022-12-01T01:25:54.906Z,99937.20
2022-12-01T01:28:08.737Z,99933.12
2022-12-01T01:30:22.572Z,99932.61
2022-12-01T01:32:35.854Z,99936.56
2022-12-01T01:34:49.068Z,99934.26
2022-12-01T01:37:02.292Z,99934.41
2022-12-01T01:39:15.418Z,99933.17
2022-12-01T01:41:29.174Z,99928.66
2022-12-01T01:43:49.213Z,99928.13
2022-12-01T01:46:02.623Z,99929.41
2022-12-01T01:48:17.296Z,99930.08
2022-12-01T01:50:33.077Z,99931.56
2022-12-01T01:52:51.346Z,99929.55
2022-12-01T01:55:05.110Z,99926.50
2022-12-01T01:57:23.486Z,99927.84
2022-12-01T01:59:40.808Z,99929.89
2022-12-01T02:01:58.792Z,99927.39
2022-12-01T02:04:13.651Z,99926.89
2022-12-01T02:06:29.043Z,99924.31
2022-12-01T02:08:42.956Z,99927.96
2022-12-01T02:11:19.786Z,99926.94
2022-12-01T02:13:44.106Z,99926.23
2022-12-01T02:16:06.132Z,99927.84
2022-12-01T02:18:29.532Z,99923.67
2022-12-01T02:21:04.454Z,99923.37
2022-12-01T02:24:06.634Z,99921.18
2022-12-01T02:26:42.718Z,99925.65
2022-12-01T02:29:11.511Z,99927.09
2022-12-01T02:31:32.423Z,99921.17
2022-12-01T02:33:52.761Z,99918.57
2022-12-01T02:36:16.912Z,99910.86
2022-12-01T02:38:33.819Z,99909.23
2022-12-01T02:40:52.943Z,99909.45
2022-12-01T02:43:10.524Z,99906.38
2022-12-01T02:45:31.731Z,99905.47
2022-12-01T02:47:48.431Z,99906.91
2022-12-01T02:50:05.327Z,99902.77
2022-12-01T02:52:20.940Z,99900.35
2022-12-01T02:54:37.256Z,99901.25
2022-12-01T02:56:54.994Z,99902.27
2022-12-01T02:59:09.221Z,99901.98
2022-12-01T03:01:47.486Z,99903.70
2022-12-01T03:04:23.758Z,99906.78
2022-12-01T03:06:51.130Z,99905.61
2022-12-01T03:09:14.061Z,99905.09
2022-12-01T03:11:38.049Z,99904.00
2022-12-01T03:13:58.127Z,99901.58
2022-12-01T03:16:16.059Z,99899.55
2022-12-01T03:18:36.327Z,99901.73
2022-12-01T03:20:55.956Z,99900.89
2022-12-01T03:23:13.098Z,99898.75
2022-12-01T03:25:29.474Z,99895.16
2022-12-01T03:28:13.502Z,99896.61
2022-12-01T03:30:21.413Z,99893.40
2022-12-01T03:32:39.625Z,99893.21
2022-12-01T03:34:55.398Z,99894.41
2022-12-01T03:37:13.580Z,99897.27
2022-12-01T03:39:30.345Z,99899.11
2022-12-01T03:41:47.524Z,99904.73
2022-12-01T03:44:07.538Z,99907.10
2022-12-01T03:46:27.092Z,99905.52
2022-12-01T03:48:41.155Z,99909.97
2022-12-01T03:51:06.398Z,99911.67
2022-12-01T03:53:27.769Z,99918.09
2022-12-01T03:55:45.446Z,99919.89
2022-12-01T03:58:04.810Z,99918.58
2022-12-01T04:00:22.320Z,99916.48
2022-12-01T04:02:35.937Z,99920.15
2022-12-01T04:04:49.225Z,99924.52
2022-12-01T04:07:02.497Z,99920.77
2022-12-01T04:09:15.748Z,99922.27
2022-12-01T04:11:45.734Z,99920.25
2022-12-01T04:13:58.947Z,99915.84
2022-12-01T04:16:12.766Z,99912.66
2022-12-01T04:18:26.397Z,99913.63
2022-12-01T04:20:40.084Z,99913.84
2022-12-01T04:22:53.797Z,99917.73
2022-12-01T04:25:07.069Z,99916.16
2022-12-01T04:27:20.345Z,99915.63
2022-12-01T04:29:34.139Z,99918.99
2022-12-01T04:31:47.555Z,99918.02
2022-12-01T04:34:01.683Z,99918.77
2022-12-01T04:36:15.697Z,99919.65
2022-12-01T04:38:30.920Z,99915.14
2022-12-01T04:40:44.440Z,99909.79
2022-12-01T04:42:57.625Z,99911.23
2022-12-01T04:45:12.025Z,99913.70
2022-12-01T04:47:25.478Z,99912.67
2022-12-01T04:49:38.820Z,99915.71
2022-12-01T04:51:52.244Z,99917.82
2022-12-01T04:54:07.198Z,99913.61
2022-12-01T04:56:20.577Z,99916.52
2022-12-01T04:58:34.360Z,99916.25
2022-12-01T05:00:47.670Z,99911.65
2022-12-01T05:03:00.911Z,99913.70
2022-12-01T05:05:16.547Z,99910.66
2022-12-01T05:07:30.097Z,99906.92
2022-12-01T05:09:43.524Z,99906.11
2022-12-01T05:11:56.579Z,99906.46
2022-12-01T05:14:10.097Z,99899.30
2022-12-01T05:16:25.220Z,99900.12
2022-12-01T05:18:38.888Z,99895.19
2022-12-01T05:21:01.144Z,99897.71
2022-12-01T05:23:16.922Z,99895.37
2022-12-01T05:25:30.649Z,99895.46
2022-12-01T05:27:43.932Z,99895.58
2022-12-01T05:29:57.113Z,99893.86
2022-12-01T05:32:10.824Z,99891.80
2022-12-01T05:34:26.971Z,99890.48
2022-12-01T05:36:40.419Z,99884.94
2022-12-01T05:38:53.816Z,99883.98
2022-12-01T05:41:07.211Z,99882.17
2022-12-01T05:43:24.007Z,99884.75
2022-12-01T05:45:41.848Z,99886.25
2022-12-01T05:47:57.577Z,99887.45
2022-12-01T05:50:13.251Z,99887.70
2022-12-01T05:52:26.505Z,99888.46
2022-12-01T05:54:39.736Z,99890.84
2022-12-01T05:56:53.034Z,99892.29
2022-12-01T05:59:06.307Z,99891.48
2022-12-01T06:01:19.603Z,99890.89
2022-12-01T06:03:32.775Z,99885.95
2022-12-01T06:05:46.105Z,99889.55
2022-12-01T06:07:59.417Z,99894.55
2022-12-01T06:10:14.164Z,99896.56
2022-12-01T06:12:27.400Z,99899.82
2022-12-01T06:14:40.682Z,99907.73
2022-12-01T06:16:53.970Z,99907.55
2022-12-01T06:19:07.539Z,99908.13
2022-12-01T06:21:21.005Z,99910.98
2022-12-01T06:23:34.280Z,99913.67
2022-12-01T06:25:47.608Z,99912.16
2022-12-01T06:28:03.987Z,99917.73
2022-12-01T06:30:18.300Z,99919.04
2022-12-01T06:32:31.786Z,99923.02
2022-12-01T06:34:45.221Z,99929.92
2022-12-01T06:36:58.646Z,99935.68
2022-12-01T06:39:14.839Z,99935.67
2022-12-01T06:41:28.363Z,99937.88
2022-12-01T06:43:43.837Z,99941.56
2022-12-01T06:46:01.700Z,99946.52
2022-12-01T06:48:15.836Z,99950.56
2022-12-01T06:50:29.500Z,99952.08
2022-12-01T06:52:42.771Z,99950.73
2022-12-01T06:54:56.397Z,99950.39
2022-12-01T06:57:10.149Z,99949.62
2022-12-01T06:59:23.536Z,99948.66
2022-12-01T07:01:37.455Z,99954.50
2022-12-01T07:03:53.528Z,99955.36
2022-12-01T07:06:07.848Z,99954.57
2022-12-01T07:08:21.050Z,99958.86
2022-12-01T07:10:34.428Z,99963.94
2022-12-01T07:12:47.575Z,99969.53
2022-12-01T07:15:01.172Z,99970.63
2022-12-01T07:17:14.460Z,99972.36
2022-12-01T07:19:28.127Z,99978.59
2022-12-01T07:21:41.358Z,99978.54
2022-12-01T07:23:54.624Z,99982.88
2022-12-01T07:26:09.675Z,99990.58
2022-12-01T07:28:22.909Z,99989.88
2022-12-01T07:30:36.285Z,99989.10
2022-12-01T07:32:49.517Z,99989.79
2022-12-01T07:35:02.851Z,99990.59
2022-12-01T07:37:16.023Z,99988.77
2022-12-01T07:39:29.256Z,99988.68
2022-12-01T07:41:42.581Z,99991.65
2022-12-01T07:43:55.828Z,99991.09
2022-12-01T07:46:17.364Z,99990.33
2022-12-01T07:48:35.487Z,99985.85
2022-12-01T07:50:48.684Z,99977.86
2022-12-01T07:53:01.880Z,99977.40
2022-12-01T07:55:15.571Z,99975.67
2022-12-01T07:57:28.963Z,99980.30
2022-12-01T07:59:42.491Z,99978.75
2022-12-01T08:01:55.842Z,99978.66
2022-12-01T08:04:09.148Z,99976.79
2022-12-01T08:06:23.185Z,99974.70
2022-12-01T08:08:37.666Z,99974.42
2022-12-01T08:10:51.098Z,99977.13
2022-12-01T08:13:04.422Z,99983.75
2022-12-01T08:15:18.355Z,99987.81
2022-12-01T08:17:31.854Z,99994.02
2022-12-01T08:19:45.062Z,99996.34
2022-12-01T08:21:58.262Z,100001.84
2022-12-01T08:24:14.150Z,100000.06
2022-12-01T08:26:28.209Z,100004.19
2022-12-01T08:28:42.000Z,100002.29
2022-12-01T08:30:55.586Z,100003.24
2022-12-01T08:33:08.780Z,100005.33
2022-12-01T08:35:22.089Z,100003.43
2022-12-01T08:37:35.356Z,100002.40
2022-12-01T08:39:48.805Z,100001.19
2022-12-01T08:42:02.317Z,100000.52
2022-12-01T08:44:15.952Z,100001.79
2022-12-01T08:46:29.440Z,100001.89
2022-12-01T08:48:42.998Z,99999.29
2022-12-01T08:50:56.438Z,99996.41
2022-12-01T08:53:10.128Z,99991.81
2022-12-01T08:55:24.350Z,99993.24
2022-12-01T08:57:38.265Z,99992.91
2022-12-01T08:59:52.066Z,99991.59
2022-12-01T09:02:07.208Z,99983.95
2022-12-01T09:04:21.426Z,99982.46
2022-12-01T09:06:35.579Z,99982.14
2022-12-01T09:08:49.431Z,99979.20
2022-12-01T09:11:03.494Z,99977.32
2022-12-01T09:13:17.380Z,99980.84
2022-12-01T09:15:31.240Z,99982.83
2022-12-01T09:17:45.020Z,99983.27
2022-12-01T09:19:58.807Z,99986.65
2022-12-01T09:22:12.485Z,99988.11
2022-12-01T09:24:26.353Z,99992.20
2022-12-01T09:26:41.079Z,99992.29
2022-12-01T09:28:56.971Z,99992.46
2022-12-01T09:31:14.200Z,99991.07
2022-12-01T09:33:28.567Z,99991.89
2022-12-01T09:35:42.635Z,99998.43
2022-12-01T09:37:56.524Z,99995.00
2022-12-01T09:40:14.309Z,99995.73
2022-12-01T09:42:33.906Z,99999.75
2022-12-01T09:44:53.805Z,100002.78
2022-12-01T09:47:15.280Z,100003.00
2022-12-01T09:49:41.982Z,100002.84
2022-12-01T09:51:56.672Z,100002.73
2022-12-01T09:54:10.727Z,100005.20
2022-12-01T09:56:27.226Z,100010.04
2022-12-01T09:58:41.908Z,100012.42
2022-12-01T10:00:57.748Z,100011.73
2022-12-01T10:03:20.595Z,100011.72
2022-12-01T10:06:02.936Z,100011.48
2022-12-01T10:08:26.680Z,100018.89
2022-12-01T10:10:44.533Z,100023.50
2022-12-01T10:12:58.575Z,100025.66
2022-12-01T10:15:25.311Z,100022.35
2022-12-01T10:17:48.704Z,100026.32
2022-12-01T10:20:09.826Z,100030.85
2022-12-01T10:22:57.604Z,100030.49
2022-12-01T10:25:19.546Z,100030.95
2022-12-01T10:27:47.417Z,100028.46
2022-12-01T10:30:09.568Z,100027.52
2022-12-01T10:32:26.780Z,100027.30
2022-12-01T10:34:44.258Z,100035.45
2022-12-01T10:36:58.674Z,100033.59
2022-12-01T10:39:18.333Z,100034.39
2022-12-01T10:41:35.064Z,100033.71
2022-12-01T10:43:53.541Z,100034.96
2022-12-01T10:46:12.254Z,100037.46
2022-12-01T10:48:26.921Z,100031.02
2022-12-01T10:50:40.958Z,100032.14
2022-12-01T10:52:55.327Z,100026.50
2022-12-01T10:55:28.166Z,100027.91
2022-12-01T10:57:42.721Z,100034.40
2022-12-01T10:59:59.843Z,100037.60
2022-12-01T11:02:25.331Z,100034.59
2022-12-01T11:04:48.434Z,100039.27
2022-12-01T11:07:02.323Z,100037.52
2022-12-01T11:09:29.296Z,100036.60
2022-12-01T11:11:46.458Z,100047.48
2022-12-01T11:14:02.711Z,100055.36
2022-12-01T11:16:47.139Z,100057.98
2022-12-01T11:19:26.864Z,100058.25
2022-12-01T11:21:48.185Z,100057.50
2022-12-01T11:24:02.537Z,100057.64
2022-12-01T11:26:21.896Z,100060.36
2022-12-01T11:28:36.858Z,100064.17
2022-12-01T11:30:58.363Z,100070.85
2022-12-01T11:33:18.652Z,100066.70
2022-12-01T11:35:33.941Z,100070.46
2022-12-01T11:38:27.684Z,100073.56
2022-12-01T11:40:31.571Z,100069.45
2022-12-01T11:42:50.169Z,100072.92
2022-12-01T11:45:08.970Z,100067.08
2022-12-01T11:47:25.418Z,100071.98
2022-12-01T11:49:47.897Z,100066.47
2022-12-01T11:52:12.597Z,100068.05
2022-12-01T11:54:28.225Z,100070.86
2022-12-01T11:56:41.985Z,100073.36
2022-12-01T11:59:01.150Z,100076.36
2022-12-01T12:01:29.248Z,100080.50
2022-12-01T12:03:53.335Z,100081.14
2022-12-01T12:09:16.754Z,100079.97
2022-12-01T12:11:33.903Z,100083.38
2022-12-01T12:14:22.882Z,100084.98
2022-12-01T12:16:51.244Z,100088.95
2022-12-01T12:19:28.949Z,100086.77
2022-12-01T12:22:14.436Z,100088.09
2022-12-01T12:24:43.364Z,100089.63
2022-12-01T12:27:01.495Z,100088.17
2022-12-01T12:29:32.408Z,100088.44
2022-12-01T12:31:56.322Z,100092.07
2022-12-01T12:34:33.334Z,100094.13
2022-12-01T12:36:53.584Z,100092.63
2022-12-01T12:39:23.077Z,100097.45
2022-12-01T12:41:45.112Z,100100.02
2022-12-01T12:44:11.213Z,100094.80
2022-12-01T12:46:29.966Z,100095.52
2022-12-01T12:49:19.329Z,100099.49
2022-12-01T12:51:39.130Z,100109.70
2022-12-01T12:53:57.300Z,100123.34
2022-12-01T12:56:13.730Z,100134.02
2022-12-01T12:58:31.249Z,100139.27
2022-12-01T13:00:50.243Z,100143.56
2022-12-01T13:03:08.385Z,100152.21
2022-12-01T13:05:28.804Z,100148.48
2022-12-01T13:07:47.443Z,100151.45
2022-12-01T13:10:06.526Z,100146.77
2022-12-01T13:12:30.042Z,100136.02
2022-12-01T13:14:47.417Z,100134.37
2022-12-01T13:17:07.052Z,100135.52
2022-12-01T13:19:24.422Z,100138.95
2022-12-01T13:21:44.433Z,100143.15
2022-12-01T13:23:58.938Z,100148.72
2022-12-01T13:26:14.924Z,100151.83
2022-12-01T13:28:30.930Z,100155.71
2022-12-01T13:30:44.524Z,100154.98
2022-12-01T13:33:05.717Z,100147.86
2022-12-01T13:35:32.864Z,100148.81
2022-12-01T13:37:48.230Z,100153.29
2022-12-01T13:40:10.738Z,100153.29
2022-12-01T13:42:29.241Z,100158.65
2022-12-01T13:44:48.141Z,100161.57
2022-12-01T13:47:06.377Z,100165.20
2022-12-01T13:49:43.526Z,100172.77
2022-12-01T13:52:29.656Z,100175.45
2022-12-01T13:55:02.449Z,100177.06
2022-12-01T13:57:35.517Z,100179.42
2022-12-01T14:00:26.509Z,100182.48
2022-12-01T14:02:41.229Z,100185.18
2022-12-01T14:04:55.076Z,100186.41
2022-12-01T14:07:40.212Z,100186.95
2022-12-01T14:09:55.572Z,100189.27
2022-12-01T14:12:18.441Z,100193.20
2022-12-01T14:14:38.344Z,100197.33
2022-12-01T14:16:59.660Z,100200.14
2022-12-01T14:19:29.420Z,100205.95
2022-12-01T14:21:51.811Z,100203.50
2022-12-01T14:24:10.202Z,100206.50
2022-12-01T14:26:25.953Z,100202.23
2022-12-01T14:29:27.391Z,100199.79
2022-12-01T14:32:21.134Z,100202.13
2022-12-01T14:34:36.675Z,100206.92
2022-12-01T14:36:53.005Z,100205.19
2022-12-01T14:39:15.505Z,100205.36
2022-12-01T14:41:35.061Z,100206.74
2022-12-01T14:44:08.062Z,100211.67
2022-12-01T14:46:26.569Z,100212.23
2022-12-01T14:48:46.693Z,100212.09
2022-12-01T14:51:11.495Z,100213.44
2022-12-01T14:53:30.886Z,100217.53
2022-12-01T14:55:49.909Z,100224.13
2022-12-01T14:58:10.978Z,100223.20
2022-12-01T15:00:27.922Z,100231.50
2022-12-01T15:02:47.332Z,100230.45
2022-12-01T15:05:17.981Z,100229.36
2022-12-01T15:07:32.247Z,100232.30
2022-12-01T15:10:05.499Z,100235.88
2022-12-01T15:12:31.252Z,100234.20
2022-12-01T15:14:50.585Z,100235.48
2022-12-01T15:17:06.555Z,100243.02
2022-12-01T15:19:35.213Z,100250.81
2022-12-01T15:21:48.830Z,100254.15
2022-12-01T15:24:07.602Z,100264.27
2022-12-01T15:26:26.483Z,100264.08
2022-12-01T15:28:40.671Z,100273.35
2022-12-01T15:30:57.435Z,100277.58
2022-12-01T15:33:11.538Z,100275.68
2022-12-01T15:35:26.744Z,100282.64
2022-12-01T15:37:47.115Z,100287.42
2022-12-01T15:42:44.342Z,100296.73
2022-12-01T15:45:06.423Z,100297.41
2022-12-01T15:47:39.955Z,100302.54
2022-12-01T15:49:56.728Z,100306.65
2022-12-01T15:52:17.426Z,100314.38
2022-12-01T15:54:32.083Z,100320.74
2022-12-01T15:56:48.019Z,100335.81
2022-12-01T15:59:06.472Z,100331.83
2022-12-01T16:01:22.581Z,100330.67
2022-12-01T16:03:51.816Z,100335.67
2022-12-01T16:06:05.532Z,100333.95
2022-12-01T16:08:24.529Z,100339.00
2022-12-01T16:10:40.140Z,100343.98
2022-12-01T16:12:53.822Z,100349.77
2022-12-01T16:15:24.102Z,100352.55
2022-12-01T16:17:47.948Z,100359.38
2022-12-01T16:20:21.528Z,100366.76
2022-12-01T16:22:35.093Z,100376.93
2022-12-01T16:24:54.517Z,100384.70
2022-12-01T16:27:10.456Z,100385.61
2022-12-01T16:29:28.325Z,100390.80
2022-12-01T16:32:12.414Z,100390.09
2022-12-01T16:34:44.763Z,100391.14
2022-12-01T16:36:57.625Z,100392.03
2022-12-01T16:39:16.064Z,100395.41
2022-12-01T16:41:38.293Z,100393.73
2022-12-01T16:44:12.857Z,100400.22
2022-12-01T16:46:24.609Z,100411.60
2022-12-01T16:48:38.928Z,100419.11
2022-12-01T16:50:52.834Z,100424.28
2022-12-01T16:53:06.635Z,100427.32
2022-12-01T16:55:35.728Z,100430.48
2022-12-01T16:57:49.182Z,100437.63
2022-12-01T17:00:02.783Z,100439.42
2022-12-01T17:02:18.119Z,100438.92
2022-12-01T17:04:31.808Z,100441.21
2022-12-01T17:06:45.284Z,100445.67
2022-12-01T17:08:58.812Z,100444.66
2022-12-01T17:11:13.524Z,100438.34
2022-12-01T17:13:28.331Z,100442.89
2022-12-01T17:15:43.687Z,100444.45
2022-12-01T17:17:57.369Z,100444.78
2022-12-01T17:20:13.197Z,100447.09
2022-12-01T17:22:27.076Z,100450.52
2022-12-01T17:24:40.688Z,100452.59
2022-12-01T17:26:54.121Z,100456.59
2022-12-01T17:29:07.961Z,100455.70
2022-12-01T17:31:21.868Z,100459.86
2022-12-01T17:33:38.229Z,100462.40
2022-12-01T17:35:52.074Z,100461.63
2022-12-01T17:38:05.684Z,100463.13
2022-12-01T17:40:20.983Z,100467.34
2022-12-01T17:42:37.139Z,100467.35
2022-12-01T17:44:51.110Z,100468.96
2022-12-01T17:47:05.140Z,100471.27
2022-12-01T17:49:18.876Z,100472.50
2022-12-01T17:51:32.489Z,100475.29
2022-12-01T17:53:46.787Z,100475.18
2022-12-01T17:56:00.419Z,100472.52
2022-12-01T17:58:14.093Z,100470.00
2022-12-01T18:00:29.001Z,100475.20
2022-12-01T18:02:42.676Z,100475.29
2022-12-01T18:04:56.528Z,100481.58
2022-12-01T18:07:10.193Z,100486.35
2022-12-01T18:09:23.756Z,100486.09
2022-12-01T18:11:37.969Z,100490.02
2022-12-01T18:13:53.317Z,100497.58
2022-12-01T18:16:08.832Z,100501.27
2022-12-01T18:18:22.521Z,100501.09
2022-12-01T18:20:36.383Z,100507.08
2022-12-01T18:22:49.989Z,100508.84
2022-12-01T18:25:04.780Z,100511.30
2022-12-01T18:27:18.633Z,100515.17
2022-12-01T18:29:32.240Z,100517.84
2022-12-01T18:31:46.448Z,100521.73
2022-12-01T18:34:03.613Z,100520.73
2022-12-01T18:36:20.271Z,100523.87
2022-12-01T18:38:33.954Z,100529.36
2022-12-01T18:40:47.715Z,100527.81
2022-12-01T18:43:01.377Z,100527.56
2022-12-01T18:45:20.998Z,100529.40
2022-12-01T18:47:35.882Z,100535.13
2022-12-01T18:49:49.547Z,100533.05
2022-12-01T18:52:05.018Z,100539.01
2022-12-01T18:54:19.746Z,100538.27
2022-12-01T18:56:34.563Z,100544.54
2022-12-01T18:58:48.152Z,100546.65
2022-12-01T19:01:01.720Z,100544.30
2022-12-01T19:03:15.280Z,100546.33
2022-12-01T19:05:28.877Z,100546.46
2022-12-01T19:07:43.177Z,100549.25
2022-12-01T19:09:56.669Z,100552.23
2022-12-01T19:12:11.537Z,100556.77
2022-12-01T19:14:25.463Z,100555.55
2022-12-01T19:16:39.440Z,100552.05
2022-12-01T19:18:53.145Z,100550.04
2022-12-01T19:21:11.787Z,100553.55
2022-12-01T19:23:25.481Z,100549.00
2022-12-01T19:25:39.325Z,100547.96
2022-12-01T19:27:54.623Z,100552.73
2022-12-01T19:30:08.836Z,100547.40
2022-12-01T19:32:24.445Z,100547.15
2022-12-01T19:34:37.883Z,100550.73
2022-12-01T19:36:53.488Z,100556.00
2022-12-01T19:39:07.866Z,100557.51
2022-12-01T19:41:26.360Z,100560.19
2022-12-01T19:43:40.507Z,100559.91
2022-12-01T19:45:54.131Z,100563.25
2022-12-01T19:48:07.851Z,100560.08
2022-12-01T19:50:21.383Z,100556.04
2022-12-01T19:52:35.379Z,100557.63
2022-12-01T19:54:49.276Z,100560.33
2022-12-01T19:57:03.170Z,100560.59
2022-12-01T19:59:16.729Z,100563.37
2022-12-01T20:01:31.114Z,100561.86
2022-12-01T20:03:45.599Z,100565.52
2022-12-01T20:06:03.720Z,100564.81
2022-12-01T20:08:17.198Z,100568.73
2022-12-01T20:10:30.732Z,100568.68
2022-12-01T20:12:44.433Z,100568.50
2022-12-01T20:14:58.010Z,100574.05
2022-12-01T20:17:15.649Z,100576.01
2022-12-01T20:19:29.597Z,100578.98
2022-12-01T20:21:45.545Z,100580.89
2022-12-01T20:24:02.163Z,100579.63
2022-12-01T20:26:17.317Z,100585.33
2022-12-01T20:28:31.013Z,100589.10
2022-12-01T20:30:47.961Z,100591.95
2022-12-01T20:33:01.809Z,100589.52
2022-12-01T20:35:16.910Z,100588.12
2022-12-01T20:37:30.457Z,100585.67
2022-12-01T20:39:44.247Z,100589.98
2022-12-01T20:41:57.919Z,100591.85
2022-12-01T20:44:12.598Z,100591.72
2022-12-01T20:46:26.116Z,100586.08
2022-12-01T20:48:40.035Z,100588.39
2022-12-01T20:50:53.672Z,100593.27
2022-12-01T20:53:07.222Z,100594.10
2022-12-01T20:55:20.805Z,100594.02
2022-12-01T20:57:34.433Z,100595.04
2022-12-01T20:59:48.127Z,100593.23
2022-12-01T21:02:01.961Z,100591.55
2022-12-01T21:04:15.886Z,100594.33
2022-12-01T21:06:30.375Z,100595.82
2022-12-01T21:08:47.837Z,100591.98
2022-12-01T21:11:01.442Z,100595.31
2022-12-01T21:13:43.413Z,100597.02
2022-12-01T21:16:04.287Z,100600.52
2022-12-01T21:18:32.104Z,100600.98
2022-12-01T21:20:50.252Z,100602.21
2022-12-01T21:23:09.560Z,100602.46
2022-12-01T21:25:25.832Z,100605.75
2022-12-01T21:27:39.407Z,100610.50
2022-12-01T21:29:53.870Z,100606.92
2022-12-01T21:32:15.199Z,100609.14
2022-12-01T21:34:30.234Z,100610.66
2022-12-01T21:36:43.769Z,100611.36
2022-12-01T21:39:04.667Z,100611.82
2022-12-01T21:41:23.750Z,100620.36
2022-12-01T21:43:39.295Z,100629.42
2022-12-01T21:45:53.655Z,100631.98
2022-12-01T21:48:16.920Z,100636.50
2022-12-01T21:50:31.258Z,100636.77
2022-12-01T21:52:46.607Z,100642.89
2022-12-01T21:55:04.521Z,100647.06
2022-12-01T21:57:39.853Z,100650.80
2022-12-01T21:59:57.523Z,100651.82
2022-12-01T22:02:35.171Z,100648.12
2022-12-01T22:04:48.921Z,100645.71
2022-12-01T22:07:03.476Z,100644.98
2022-12-01T22:09:25.829Z,100646.35
2022-12-01T22:11:39.466Z,100644.66
2022-12-01T22:13:55.265Z,100642.80
2022-12-01T22:16:12.832Z,100642.34
2022-12-01T22:18:30.827Z,100643.67
2022-12-01T22:20:47.690Z,100645.58
2022-12-01T22:23:01.805Z,100649.60
2022-12-01T22:25:26.508Z,100655.77
2022-12-01T22:27:42.003Z,100660.25
2022-12-01T22:30:00.004Z,100658.60
2022-12-01T22:32:42.745Z,100657.15
2022-12-01T22:34:59.977Z,100662.00
2022-12-01T22:37:20.181Z,100667.18
2022-12-01T22:39:36.663Z,100673.12
2022-12-01T22:41:50.643Z,100676.02
2022-12-01T22:44:05.503Z,100672.60
2022-12-01T22:46:39.401Z,100679.00
2022-12-01T22:48:55.726Z,100684.84
2022-12-01T22:51:28.154Z,100685.31
2022-12-01T22:53:41.736Z,100694.24
2022-12-01T22:55:58.744Z,100702.19
2022-12-01T22:58:25.849Z,100711.69
2022-12-01T23:00:39.375Z,100719.23
2022-12-01T23:02:54.610Z,100720.14
2022-12-01T23:05:18.253Z,100721.65
2022-12-01T23:07:36.562Z,100727.81
2022-12-01T23:09:50.806Z,100733.27
2022-12-01T23:12:19.800Z,100735.23
2022-12-01T23:14:33.726Z,100735.27
2022-12-01T23:16:47.317Z,100741.89
2022-12-01T23:19:02.438Z,100745.95
2022-12-01T23:21:16.537Z,100750.39
2022-12-01T23:23:36.641Z,100754.90
2022-12-01T23:25:52.227Z,100758.98
2022-12-01T23:28:09.254Z,100758.80
2022-12-01T23:30:24.840Z,100767.41
2022-12-01T23:32:38.495Z,100768.09
2022-12-01T23:34:54.655Z,100768.55
2022-12-01T23:37:23.039Z,100775.90
2022-12-01T23:39:39.120Z,100777.65
2022-12-01T23:41:54.656Z,100775.84
2022-12-01T23:44:15.026Z,100780.92
2022-12-01T23:46:30.778Z,100779.94
2022-12-01T23:48:47.259Z,100782.61
2022-12-01T23:51:00.962Z,100782.30
2022-12-01T23:53:27.212Z,100785.70
2022-12-01T23:55:40.768Z,100788.98
2022-12-01T23:57:55.067Z,100792.64
